createdAt,value
2019-04-14T00:01:48.218Z,2.70
2019-04-14T00:04:55.357Z,2.70
2019-04-14T00:10:52.879Z,2.80
2019-04-14T00:13:41.487Z,2.70
2019-04-14T00:16:22.774Z,2.70
2019-04-14T00:19:04.411Z,2.70
2019-04-14T00:21:45.521Z,2.70
2019-04-14T00:24:27.080Z,2.70
2019-04-14T00:27:08.537Z,2.70
2019-04-14T00:29:50.294Z,2.60
2019-04-14T00:32:33.394Z,2.60
2019-04-14T00:35:34.229Z,2.60
2019-04-14T00:41:10.032Z,2.60
2019-04-14T00:47:02.916Z,2.60
2019-04-14T00:49:31.516Z,2.60
2019-04-14T00:52:19.511Z,2.50
2019-04-14T00:55:07.615Z,2.60
2019-04-14T00:57:57.271Z,2.60
2019-04-14T01:00:47.322Z,2.60
2019-04-14T01:03:17.749Z,2.60
2019-04-14T01:05:46.328Z,2.50
2019-04-14T01:08:16.240Z,2.50
2019-04-14T01:10:45.416Z,2.50
2019-04-14T01:13:15.655Z,2.50
2019-04-14T01:16:10.255Z,2.50
2019-04-14T01:18:47.303Z,2.40
2019-04-14T01:21:28.545Z,2.40
2019-04-14T01:24:07.569Z,2.40
2019-04-14T01:26:55.400Z,2.40
2019-04-14T01:29:43.329Z,2.30
2019-04-14T01:32:32.353Z,2.30
2019-04-14T01:35:20.889Z,2.30
2019-04-14T01:38:08.784Z,2.20
2019-04-14T01:40:57.755Z,2.20
2019-04-14T01:43:27.798Z,2.20
2019-04-14T01:46:05.228Z,2.20
2019-04-14T01:48:45.911Z,2.20
2019-04-14T01:51:53.056Z,2.20
2019-04-14T01:58:09.916Z,2.10
2019-04-14T02:01:17.432Z,2.10
2019-04-14T02:07:01.536Z,2.00
2019-04-14T02:09:51.086Z,2.00
2019-04-14T02:15:46.574Z,2.00
2019-04-14T02:18:29.569Z,2.00
2019-04-14T02:21:10.870Z,2.00
2019-04-14T02:23:51.871Z,1.90
2019-04-14T02:26:32.996Z,1.90
2019-04-14T02:29:14.389Z,1.80
2019-04-14T02:32:25.512Z,1.80
2019-04-14T02:34:59.433Z,1.90
2019-04-14T02:37:28.309Z,1.80
2019-04-14T02:39:54.248Z,1.80
2019-04-14T02:42:44.074Z,1.80
2019-04-14T02:45:35.180Z,1.80
2019-04-14T02:51:14.485Z,1.80
2019-04-14T02:56:58.861Z,1.80
2019-04-14T03:02:29.588Z,1.80
2019-04-14T03:05:13.247Z,1.80
2019-04-14T03:07:30.350Z,1.80
2019-04-14T03:09:52.246Z,1.80
2019-04-14T03:12:34.410Z,1.90
2019-04-14T03:15:01.877Z,2.00
2019-04-14T03:25:22.745Z,2.00
2019-04-14T03:27:58.659Z,2.10
2019-04-14T03:34:30.696Z,2.10
2019-04-14T03:42:43.876Z,2.20
2019-04-14T03:45:46.724Z,2.30
2019-04-14T03:51:18.841Z,2.20
2019-04-14T03:56:42.906Z,2.30
2019-04-14T03:59:30.848Z,2.30
2019-04-14T04:02:18.748Z,2.30
2019-04-14T04:05:06.756Z,2.40
2019-04-14T04:07:55.940Z,2.40
2019-04-14T04:11:04.044Z,2.40
2019-04-14T04:13:52.065Z,2.40
2019-04-14T04:22:37.128Z,2.40
2019-04-14T04:25:20.323Z,2.40
2019-04-14T04:31:15.620Z,2.50
2019-04-14T04:34:16.222Z,2.40
2019-04-14T04:37:17.119Z,2.50
2019-04-14T04:40:00.618Z,2.50
2019-04-14T04:42:41.670Z,2.50
2019-04-14T04:45:22.039Z,2.50
2019-04-14T04:48:02.631Z,2.50
2019-04-14T04:50:43.593Z,2.60
2019-04-14T04:53:24.490Z,2.60
2019-04-14T04:56:05.764Z,2.50
2019-04-14T04:58:46.688Z,2.50
2019-04-14T05:01:15.289Z,2.50
2019-04-14T05:03:44.928Z,2.50
2019-04-14T05:06:42.105Z,2.60
2019-04-14T05:09:21.083Z,2.60
2019-04-14T05:12:08.922Z,2.60
2019-04-14T05:14:39.177Z,2.70
2019-04-14T05:17:07.976Z,2.70
2019-04-14T05:19:49.655Z,2.70
2019-04-14T05:22:31.093Z,2.80
2019-04-14T05:25:12.452Z,2.80
2019-04-14T05:27:53.805Z,2.80
2019-04-14T05:30:35.003Z,2.80
2019-04-14T05:33:16.264Z,3.00
2019-04-14T05:35:57.425Z,3.10
2019-04-14T05:38:38.667Z,3.30
2019-04-14T05:41:20.145Z,3.40
2019-04-14T05:44:02.040Z,3.50
2019-04-14T05:46:43.081Z,3.50
2019-04-14T05:49:31.511Z,3.60
2019-04-14T05:51:54.450Z,3.60
2019-04-14T05:54:42.549Z,3.60
2019-04-14T05:57:32.721Z,3.70
2019-04-14T06:03:30.077Z,3.90
2019-04-14T06:06:17.972Z,3.90
2019-04-14T06:09:26.632Z,4.10
2019-04-14T06:12:14.536Z,4.20
2019-04-14T06:15:02.469Z,4.20
2019-04-14T06:17:50.378Z,4.20
2019-04-14T06:20:31.134Z,4.30
2019-04-14T06:23:12.221Z,4.40
2019-04-14T06:25:53.595Z,4.50
2019-04-14T06:28:34.590Z,4.50
2019-04-14T06:31:34.246Z,4.50
2019-04-14T06:34:06.920Z,4.50
2019-04-14T06:37:14.000Z,4.40
2019-04-14T06:40:03.569Z,4.40
2019-04-14T06:45:39.025Z,4.30
2019-04-14T06:48:26.951Z,4.30
2019-04-14T06:51:14.977Z,4.30
2019-04-14T06:54:02.923Z,4.40
2019-04-14T06:56:50.861Z,4.40
2019-04-14T06:59:38.752Z,4.40
2019-04-14T07:02:26.693Z,4.50
2019-04-14T07:05:26.724Z,4.60
2019-04-14T07:08:16.662Z,4.70
2019-04-14T07:13:48.325Z,5.10
2019-04-14T07:16:37.794Z,5.30
2019-04-14T07:19:25.658Z,5.40
2019-04-14T07:22:06.980Z,5.50
2019-04-14T07:24:47.844Z,5.50
2019-04-14T07:27:28.716Z,5.40
2019-04-14T07:30:28.923Z,5.40
2019-04-14T07:33:11.253Z,5.40
2019-04-14T07:35:57.126Z,5.40
2019-04-14T07:38:30.305Z,5.50
2019-04-14T07:41:00.610Z,5.70
2019-04-14T07:44:07.729Z,6.00
2019-04-14T07:50:15.826Z,6.70
2019-04-14T07:53:22.925Z,6.90
2019-04-14T07:55:53.149Z,7.00
2019-04-14T07:58:23.345Z,6.90
2019-04-14T08:00:59.478Z,7.10
2019-04-14T08:03:32.691Z,7.40
2019-04-14T08:06:01.272Z,7.60
2019-04-14T08:08:49.238Z,7.70
2019-04-14T08:11:37.100Z,7.70
2019-04-14T08:14:25.037Z,7.80
2019-04-14T08:17:12.954Z,8.00
2019-04-14T08:20:00.873Z,8.20
2019-04-14T08:22:41.294Z,8.20
2019-04-14T08:25:21.883Z,8.10
2019-04-14T08:28:02.339Z,8.10
2019-04-14T08:30:42.922Z,7.90
2019-04-14T08:33:11.475Z,7.70
2019-04-14T08:35:59.504Z,7.80
2019-04-14T08:38:47.393Z,7.80
2019-04-14T08:44:18.195Z,7.80
2019-04-14T08:47:02.928Z,7.60
2019-04-14T08:49:35.764Z,7.60
2019-04-14T08:52:11.832Z,7.40
2019-04-14T08:55:18.984Z,7.40
2019-04-14T08:58:26.097Z,7.30
2019-04-14T09:01:33.220Z,7.40
2019-04-14T09:06:58.295Z,7.70
2019-04-14T09:09:40.387Z,7.70
2019-04-14T09:12:15.906Z,7.60
2019-04-14T09:14:55.912Z,7.50
2019-04-14T09:17:14.100Z,7.30
2019-04-14T09:19:42.661Z,7.20
2019-04-14T09:22:11.256Z,7.10
2019-04-14T09:24:39.808Z,7.10
2019-04-14T09:27:08.360Z,7.00
2019-04-14T09:29:36.956Z,6.90
2019-04-14T09:32:07.155Z,6.90
2019-04-14T09:34:35.740Z,6.90
2019-04-14T09:37:04.374Z,6.90
2019-04-14T09:39:32.961Z,7.00
2019-04-14T09:42:02.260Z,7.10
2019-04-14T09:44:30.855Z,7.10
2019-04-14T09:46:59.427Z,7.10
2019-04-14T09:49:28.023Z,7.20
2019-04-14T09:51:56.576Z,7.20
2019-04-14T09:54:44.518Z,7.20
2019-04-14T09:57:32.522Z,7.10
2019-04-14T10:00:20.537Z,7.00
2019-04-14T10:03:08.596Z,6.80
2019-04-14T10:05:56.664Z,6.70
2019-04-14T10:11:32.311Z,6.60
2019-04-14T10:14:20.297Z,6.60
2019-04-14T10:17:20.158Z,6.60
2019-04-14T10:19:57.779Z,6.70
2019-04-14T10:22:38.268Z,6.80
2019-04-14T10:25:18.943Z,6.90
2019-04-14T10:27:59.415Z,6.80
2019-04-14T10:30:40.060Z,6.70
2019-04-14T10:33:20.386Z,6.70
2019-04-14T10:36:01.119Z,6.80
2019-04-14T10:38:41.646Z,6.80
2019-04-14T10:41:22.009Z,6.70
2019-04-14T10:44:03.078Z,6.60
2019-04-14T10:46:43.620Z,6.40
2019-04-14T10:49:24.558Z,6.30
2019-04-14T10:52:05.552Z,6.40
2019-04-14T10:54:46.819Z,6.50
2019-04-14T10:57:27.748Z,6.50
2019-04-14T11:00:10.148Z,6.50
2019-04-14T11:02:51.449Z,6.50
2019-04-14T11:05:33.412Z,6.60
2019-04-14T11:08:14.028Z,6.90
2019-04-14T11:10:54.845Z,7.10
2019-04-14T11:13:36.074Z,7.20
2019-04-14T11:16:16.962Z,7.30
2019-04-14T11:18:57.540Z,7.30
2019-04-14T11:21:42.400Z,7.20
2019-04-14T11:24:26.334Z,7.00
2019-04-14T11:27:14.805Z,6.90
2019-04-14T11:29:43.548Z,7.00
2019-04-14T11:32:29.540Z,7.00
2019-04-14T11:35:36.629Z,7.10
2019-04-14T11:38:43.752Z,7.20
2019-04-14T11:44:40.191Z,6.80
2019-04-14T11:47:28.133Z,6.70
2019-04-14T11:53:10.622Z,6.60
2019-04-14T11:55:58.546Z,6.50
2019-04-14T11:58:46.445Z,6.50
2019-04-14T12:01:53.576Z,6.70
2019-04-14T12:08:09.213Z,6.90
2019-04-14T12:10:57.110Z,6.90
2019-04-14T12:13:45.097Z,6.80
2019-04-14T12:16:32.938Z,6.70
2019-04-14T12:19:20.932Z,6.60
2019-04-14T12:24:54.369Z,6.80
2019-04-14T12:27:34.984Z,6.80
2019-04-14T12:30:16.321Z,7.40
2019-04-14T12:32:57.072Z,6.80
2019-04-14T12:35:38.434Z,6.80
2019-04-14T12:38:19.333Z,6.80
2019-04-14T12:41:02.539Z,6.70
2019-04-14T12:49:40.240Z,6.60
2019-04-14T12:55:36.668Z,6.70
2019-04-14T13:04:18.058Z,6.90
2019-04-14T13:07:05.988Z,6.80
2019-04-14T13:09:53.916Z,6.80
2019-04-14T13:12:41.878Z,6.90
2019-04-14T13:15:29.765Z,6.80
2019-04-14T13:18:17.746Z,6.80
2019-04-14T13:21:05.707Z,6.80
2019-04-14T13:23:47.052Z,6.80
2019-04-14T13:26:27.730Z,6.80
2019-04-14T13:29:08.925Z,6.90
2019-04-14T13:31:49.842Z,7.00
2019-04-14T13:34:30.196Z,7.10
2019-04-14T13:37:11.277Z,7.10
2019-04-14T13:39:52.394Z,7.20
2019-04-14T13:42:33.694Z,7.20
2019-04-14T13:45:14.484Z,7.10
2019-04-14T13:47:55.749Z,7.00
2019-04-14T13:50:36.156Z,7.00
2019-04-14T13:53:17.482Z,7.00
2019-04-14T13:55:58.382Z,7.00
2019-04-14T13:58:40.860Z,7.00
2019-04-14T14:01:21.935Z,7.10
2019-04-14T14:04:02.565Z,7.00
2019-04-14T14:06:43.777Z,7.00
2019-04-14T14:09:24.620Z,7.00
2019-04-14T14:15:03.618Z,7.00
2019-04-14T14:18:04.225Z,7.00
2019-04-14T14:20:46.300Z,7.00
2019-04-14T14:23:47.174Z,7.00
2019-04-14T14:26:32.724Z,7.00
2019-04-14T14:29:13.232Z,7.00
2019-04-14T14:31:54.405Z,7.00
2019-04-14T14:34:22.961Z,7.00
2019-04-14T14:37:11.020Z,7.10
2019-04-14T14:39:58.993Z,7.10
2019-04-14T14:42:47.236Z,7.10
2019-04-14T14:48:49.021Z,7.10
2019-04-14T14:51:56.130Z,7.10
2019-04-14T14:54:45.589Z,7.10
2019-04-14T14:57:33.659Z,7.10
2019-04-14T15:03:16.137Z,7.20
2019-04-14T15:09:11.211Z,7.30
2019-04-14T15:11:59.145Z,7.40
2019-04-14T15:14:47.977Z,7.50
2019-04-14T15:20:29.122Z,7.60
2019-04-14T15:26:18.910Z,7.60
2019-04-14T15:29:00.123Z,7.60
2019-04-14T15:31:40.971Z,7.70
2019-04-14T15:37:04.571Z,7.70
2019-04-14T15:39:45.277Z,7.80
2019-04-14T15:42:26.554Z,7.80
2019-04-14T15:45:07.386Z,7.80
2019-04-14T15:47:48.046Z,7.80
2019-04-14T15:50:28.596Z,7.70
2019-04-14T15:53:09.222Z,7.60
2019-04-14T15:55:50.189Z,7.60
2019-04-14T15:58:35.229Z,7.60
2019-04-14T16:04:11.238Z,7.60
2019-04-14T16:06:53.236Z,7.60
2019-04-14T16:12:31.903Z,7.60
2019-04-14T16:15:31.774Z,7.60
2019-04-14T16:18:16.685Z,7.60
2019-04-14T16:20:57.533Z,7.60
2019-04-14T16:23:49.692Z,7.60
2019-04-14T16:26:22.149Z,7.60
2019-04-14T16:32:12.573Z,7.70
2019-04-14T16:34:53.899Z,7.80
2019-04-14T16:37:35.571Z,7.80
2019-04-14T16:40:05.347Z,7.90
2019-04-14T16:42:53.281Z,7.80
2019-04-14T16:45:42.233Z,7.80
2019-04-14T16:48:30.451Z,7.70
2019-04-14T16:54:37.353Z,7.60
2019-04-14T16:57:44.578Z,7.60
2019-04-14T17:03:31.357Z,7.50
2019-04-14T17:06:19.286Z,7.50
2019-04-14T17:09:07.402Z,7.50
2019-04-14T17:12:07.205Z,7.40
2019-04-14T17:15:04.359Z,7.40
2019-04-14T17:18:11.521Z,7.40
2019-04-14T17:21:18.659Z,7.30
2019-04-14T17:24:25.830Z,7.40
2019-04-14T17:29:51.401Z,6.60
2019-04-14T17:32:32.834Z,7.40
2019-04-14T17:38:07.458Z,7.30
2019-04-14T17:40:43.593Z,7.30
2019-04-14T17:43:29.622Z,7.30
2019-04-14T17:49:45.291Z,7.20
2019-04-14T17:52:52.451Z,7.20
2019-04-14T17:55:59.557Z,7.20
2019-04-14T17:59:06.685Z,7.20
2019-04-14T18:02:13.779Z,7.20
2019-04-14T18:05:03.349Z,7.10
2019-04-14T18:07:52.946Z,7.10
2019-04-14T18:11:00.093Z,6.50
2019-04-14T18:14:07.209Z,7.00
2019-04-14T18:17:14.346Z,7.00
2019-04-14T18:20:21.456Z,6.90
2019-04-14T18:23:09.405Z,6.90
2019-04-14T18:28:37.874Z,6.90
2019-04-14T18:31:37.604Z,6.90
2019-04-14T18:34:19.958Z,6.80
2019-04-14T18:36:56.257Z,6.90
2019-04-14T18:39:26.617Z,6.90
2019-04-14T18:41:56.966Z,6.90
2019-04-14T18:44:33.001Z,6.90
2019-04-14T18:47:21.457Z,6.90
2019-04-14T18:49:51.664Z,6.80
2019-04-14T18:52:30.568Z,6.80
2019-04-14T18:55:37.650Z,6.80
2019-04-14T18:58:44.908Z,6.90
2019-04-14T19:04:41.415Z,6.90
2019-04-14T19:07:29.370Z,6.90
2019-04-14T19:10:17.326Z,6.90
2019-04-14T19:13:24.549Z,6.90
2019-04-14T19:19:23.567Z,6.90
2019-04-14T19:22:12.049Z,6.90
2019-04-14T19:25:07.893Z,6.90
2019-04-14T19:27:30.349Z,6.90
2019-04-14T19:30:18.346Z,6.90
2019-04-14T19:33:06.256Z,7.00
2019-04-14T19:35:54.265Z,7.00
2019-04-14T19:38:42.238Z,7.00
2019-04-14T19:41:30.170Z,7.00
2019-04-14T19:44:18.107Z,7.00
2019-04-14T19:47:06.050Z,7.10
2019-04-14T19:49:55.323Z,7.10
2019-04-14T19:52:43.321Z,7.10
2019-04-14T19:55:31.311Z,7.10
2019-04-14T19:58:19.322Z,7.10
2019-04-14T20:04:02.275Z,7.20
2019-04-14T20:06:50.191Z,7.20
2019-04-14T20:09:38.182Z,7.20
2019-04-14T20:12:26.141Z,7.20
2019-04-14T20:21:09.531Z,7.20
2019-04-14T20:27:25.160Z,7.20
2019-04-14T20:32:49.829Z,7.20
2019-04-14T20:35:30.429Z,7.20
2019-04-14T20:38:11.800Z,7.20
2019-04-14T20:40:52.375Z,7.20
2019-04-14T20:43:20.981Z,7.20
2019-04-14T20:46:08.893Z,7.20
2019-04-14T20:48:58.017Z,7.20
2019-04-14T20:51:26.586Z,7.20
2019-04-14T20:54:14.538Z,7.20
2019-04-14T20:56:43.229Z,7.20
2019-04-14T20:59:11.740Z,7.20
2019-04-14T21:05:13.879Z,7.20
2019-04-14T21:08:21.026Z,7.20
2019-04-14T21:11:28.206Z,7.20
2019-04-14T21:14:35.337Z,7.20
2019-04-14T21:20:51.028Z,7.20
2019-04-14T21:23:58.366Z,7.20
2019-04-14T21:26:47.911Z,7.20
2019-04-14T21:29:47.803Z,7.20
2019-04-14T21:32:30.124Z,7.20
2019-04-14T21:35:10.998Z,7.20
2019-04-14T21:38:14.211Z,7.20
2019-04-14T21:40:53.094Z,7.20
2019-04-14T21:43:21.658Z,7.20
2019-04-14T21:45:50.335Z,7.20
2019-04-14T21:48:18.906Z,7.20
2019-04-14T21:50:47.463Z,7.20
2019-04-14T21:53:16.070Z,7.20
2019-04-14T21:55:44.661Z,7.20
2019-04-14T22:01:42.495Z,7.20
2019-04-14T22:04:49.663Z,7.20
2019-04-14T22:07:56.783Z,7.10
2019-04-14T22:13:23.964Z,7.10
2019-04-14T22:15:52.730Z,7.10
2019-04-14T22:18:21.564Z,7.10
2019-04-14T22:20:50.115Z,7.00
2019-04-14T22:23:18.822Z,7.00
2019-04-14T22:25:47.421Z,7.00
2019-04-14T22:28:16.030Z,6.90
2019-04-14T22:30:57.083Z,6.90
2019-04-14T22:33:37.988Z,6.90
2019-04-14T22:39:01.289Z,6.90
2019-04-14T22:41:42.447Z,6.90
2019-04-14T22:44:23.616Z,6.90
2019-04-14T22:47:04.602Z,6.90
2019-04-14T22:49:45.950Z,6.90
2019-04-14T22:52:26.514Z,6.90
2019-04-14T22:55:07.147Z,6.80
2019-04-14T22:57:47.696Z,6.90
2019-04-14T23:00:32.965Z,6.80
2019-04-14T23:03:32.783Z,6.80
2019-04-14T23:09:26.688Z,6.80
2019-04-14T23:12:05.771Z,6.80
2019-04-14T23:14:38.925Z,6.80
2019-04-14T23:17:14.944Z,6.70
2019-04-14T23:19:47.952Z,6.70
2019-04-14T23:22:20.853Z,6.70
2019-04-14T23:25:08.940Z,6.70
2019-04-14T23:27:56.898Z,6.70
2019-04-14T23:30:37.794Z,6.70
2019-04-14T23:33:18.571Z,6.60
2019-04-14T23:38:41.784Z,6.60
2019-04-14T23:41:22.389Z,6.50
2019-04-14T23:44:03.433Z,6.50
2019-04-14T23:46:44.657Z,6.50
2019-04-14T23:52:08.374Z,6.40
2019-04-14T23:54:48.874Z,6.40
2019-04-14T23:57:30.161Z,6.40
